Time;durP1;ratioP1;P1;durP2;ratioP2;P2;SDS_P1;SDS_P2;PMS_P1;PMS_P2;Temp;Humidity;BMP_temperature;BMP_pressure;BME280_temperature;BME280_humidity;BME280_pressure;Samples;Min_cycle;Max_cycle;Signal;HPM_P1;HPM_P2
2022/07/17 00:00:42;;;;;;;123.82;117.45;;;;;;;22.07;70.52;100958.69;4944112;28;103902;-65
2022/07/17 00:03:09;;;;;;;141.20;133.90;;;;;;;22.07;70.65;100958.69;4952113;28;102059;-65
2022/07/17 00:05:37;;;;;;;159.90;151.55;;;;;;;22.07;70.61;100964.22;4954991;28;102360;-67
2022/07/17 00:08:06;;;;;;;144.60;137.23;;;;;;;22.07;70.70;100964.22;4940875;28;102317;-64
2022/07/17 00:10:32;;;;;;;130.50;123.53;;;;;;;22.08;70.44;100965.84;4953928;28;103886;-65
2022/07/17 00:12:59;;;;;;;101.28;95.80;;;;;;;22.08;70.71;100965.84;4956114;28;102171;-65
2022/07/17 00:15:26;;;;;;;111.97;106.30;;;;;;;22.07;70.62;100972.56;4955233;28;102880;-66
2022/07/17 00:17:52;;;;;;;109.00;103.35;;;;;;;22.08;70.75;100968.63;4956569;28;102333;-65
2022/07/17 00:20:19;;;;;;;104.13;98.55;;;;;;;22.07;70.61;100969.78;4954552;28;105034;-65
2022/07/17 00:22:47;;;;;;;101.88;96.68;;;;;;;22.08;70.62;100974.16;4955172;28;101946;-65
2022/07/17 00:25:13;;;;;;;105.33;99.97;;;;;;;22.08;70.73;100971.38;4953935;28;103710;-65
2022/07/17 00:27:40;;;;;;;100.43;95.35;;;;;;;22.07;70.44;100972.56;4960268;28;102113;-65
2022/07/17 00:30:07;;;;;;;106.25;100.65;;;;;;;22.07;70.58;100976.13;4955973;28;103875;-65
2022/07/17 00:32:34;;;;;;;93.87;89.07;;;;;;;22.07;70.51;100976.13;4959694;28;102590;-65
2022/07/17 00:35:01;;;;;;;101.18;96.00;;;;;;;22.07;70.58;100975.31;4958525;28;102048;-65
2022/07/17 00:37:28;;;;;;;102.13;96.80;;;;;;;22.08;70.83;100974.16;4959535;28;102378;-66
2022/07/17 00:39:56;;;;;;;105.13;99.80;;;;;;;22.07;70.57;100967.81;4958768;28;103916;-65
2022/07/17 00:42:22;;;;;;;113.90;108.13;;;;;;;22.06;70.67;100962.59;4941756;28;102273;-65
2022/07/17 00:44:49;;;;;;;96.65;91.65;;;;;;;22.07;70.63;100964.22;4958367;28;102202;-66
2022/07/17 00:47:18;;;;;;;109.30;103.70;;;;;;;22.07;70.47;100967.81;4959771;28;102303;-65
2022/07/17 00:49:45;;;;;;;104.50;99.20;;;;;;;22.07;70.66;100967.81;4957651;28;103951;-66
2022/07/17 00:52:12;;;;;;;117.25;111.20;;;;;;;22.07;70.84;100959.50;4958476;28;102349;-65
2022/07/17 00:54:40;;;;;;;113.93;108.18;;;;;;;22.08;70.52;100963.06;4957526;28;102724;-65
2022/07/17 00:57:10;;;;;;;100.40;95.30;;;;;;;22.08;70.70;100965.84;4960041;28;102296;-65
2022/07/17 00:59:39;;;;;;;113.80;108.00;;;;;;;22.08;70.72;100965.84;4950591;28;104109;-65
2022/07/17 01:02:07;;;;;;;100.13;94.90;;;;;;;22.08;70.83;100963.06;4958311;28;101998;-66
2022/07/17 01:04:34;;;;;;;108.78;103.30;;;;;;;22.07;70.71;100959.50;4949345;28;102295;-66
2022/07/17 01:07:03;;;;;;;108.63;103.05;;;;;;;22.07;70.77;100969.78;4959724;28;102585;-66
2022/07/17 01:09:33;;;;;;;112.63;106.78;;;;;;;22.07;70.56;100967.00;4957807;28;103873;-66
2022/07/17 01:12:00;;;;;;;106.55;101.10;;;;;;;22.07;70.69;100975.31;4950838;28;102363;-66
2022/07/17 01:14:28;;;;;;;111.32;105.60;;;;;;;22.06;70.65;100968.13;4958479;28;102414;-65
2022/07/17 01:16:55;;;;;;;105.47;99.38;;;;;;;22.08;70.87;100971.38;4958678;28;102423;-66
2022/07/17 01:19:23;;;;;;;108.28;102.68;;;;;;;22.08;70.83;100971.38;4957094;28;103935;-65
2022/07/17 01:21:51;;;;;;;107.85;102.32;;;;;;;22.06;70.64;100974.50;4958248;28;102060;-65
2022/07/17 01:24:19;;;;;;;104.67;99.30;;;;;;;22.07;70.75;100975.31;4956002;28;101918;-66
2022/07/17 01:26:47;;;;;;;101.07;95.55;;;;;;;22.07;70.69;100976.13;4953602;28;103278;-64
2022/07/17 01:29:15;;;;;;;97.72;91.22;;;;;;;22.07;70.72;100975.31;4957352;28;103968;-65
2022/07/17 01:31:42;;;;;;;113.95;108.03;;;;;;;22.08;70.66;100976.94;4958123;28;102344;-65
2022/07/17 01:34:15;;;;;;;113.32;107.57;;;;;;;22.08;70.81;100976.94;4958335;28;102246;-66
2022/07/17 01:36:42;;;;;;;109.75;104.18;;;;;;;22.06;70.80;100976.44;4957808;28;102421;-65
2022/07/17 01:39:10;;;;;;;123.22;116.93;;;;;;;22.07;70.64;100978.09;4957035;28;103896;-65
2022/07/17 01:41:37;;;;;;;107.15;101.63;;;;;;;22.06;70.84;100985.56;4957913;28;102261;-65
2022/07/17 01:44:07;;;;;;;102.18;96.90;;;;;;;22.07;70.90;100975.31;4958069;28;103660;-65
2022/07/17 01:46:34;;;;;;;103.80;98.45;;;;;;;22.07;70.85;100975.31;4957813;28;102336;-65
2022/07/17 01:49:00;;;;;;;111.82;106.07;;;;;;;22.06;70.82;100973.69;4956729;28;103919;-65
2022/07/17 01:51:27;;;;;;;108.15;102.43;;;;;;;22.07;71.06;100976.13;4957881;28;102374;-65
2022/07/17 01:53:54;;;;;;;120.20;113.97;;;;;;;22.07;70.84;100975.31;4957114;28;102257;-65
2022/07/17 01:56:21;;;;;;;107.47;102.00;;;;;;;22.07;70.94;100975.31;4958409;28;102203;-64
2022/07/17 01:58:48;;;;;;;106.47;101.10;;;;;;;22.07;70.86;100980.88;4954930;28;103876;-65
2022/07/17 02:01:15;;;;;;;116.60;110.57;;;;;;;22.06;70.82;100974.50;4958420;28;102663;-65
2022/07/17 02:03:42;;;;;;;119.53;113.32;;;;;;;22.07;70.76;100975.31;4957511;28;102198;-65
2022/07/17 02:06:09;;;;;;;121.38;114.80;;;;;;;22.05;70.78;100972.88;4958517;28;102167;-66
2022/07/17 02:08:35;;;;;;;380.45;358.23;;;;;;;22.05;70.89;100967.34;4956203;28;104076;-65
2022/07/17 02:11:02;;;;;;;331.15;312.60;;;;;;;22.06;70.94;100974.50;4957911;28;102823;-65
2022/07/17 02:13:30;;;;;;;345.55;326.27;;;;;;;22.07;70.90;100969.78;4957340;28;104825;-65
2022/07/17 02:15:56;;;;;;;332.65;313.38;;;;;;;22.06;70.76;100970.91;4958032;28;102379;-65
2022/07/17 02:18:23;;;;;;;69.55;65.70;;;;;;;22.05;70.98;100972.88;4946480;28;104079;-65
2022/07/17 02:20:49;;;;;;;74.43;70.15;;;;;;;22.06;70.92;100973.69;4954656;28;102409;-65
2022/07/17 02:23:16;;;;;;;71.07;67.05;;;;;;;22.06;70.93;100973.69;4948374;28;102309;-64
2022/07/17 02:25:43;;;;;;;56.97;53.67;;;;;;;22.06;70.84;100970.91;4958116;28;102234;-64
2022/07/17 02:28:09;;;;;;;56.58;53.33;;;;;;;22.06;70.74;100973.69;4957131;28;103895;-65
2022/07/17 02:30:37;;;;;;;55.05;51.85;;;;;;;22.06;70.84;100973.69;4957437;28;103690;-65
2022/07/17 02:33:06;;;;;;;60.83;57.17;;;;;;;22.06;71.04;100965.38;4941250;28;103769;-66
2022/07/17 02:35:34;;;;;;;65.38;61.47;;;;;;;22.06;70.75;100968.13;4957589;28;102390;-66
2022/07/17 02:38:01;;;;;;;60.83;57.38;;;;;;;22.05;70.90;100964.56;4956795;28;103864;-64
2022/07/17 02:40:27;;;;;;;64.95;60.97;;;;;;;22.04;70.85;100960.19;4956342;28;102268;-66
2022/07/17 02:42:55;;;;;;;61.65;58.15;;;;;;;22.05;70.87;100972.88;4957088;28;102054;-65
2022/07/17 02:45:24;;;;;;;44.22;41.67;;;;;;;22.05;70.84;100969.28;4957682;28;102618;-65
2022/07/17 02:47:54;;;;;;;43.08;40.53;;;;;;;22.05;70.78;100970.09;4956582;28;103889;-64
2022/07/17 02:50:21;;;;;;;45.30;42.70;;;;;;;22.05;70.98;100966.53;4944947;28;102842;-65
2022/07/17 02:52:49;;;;;;;41.60;39.05;;;;;;;22.04;70.94;100968.50;4955180;28;102287;-65
2022/07/17 02:55:18;;;;;;;30.88;28.85;;;;;;;22.05;70.95;100966.53;4955347;28;102661;-65
2022/07/17 02:57:48;;;;;;;69.43;65.15;;;;;;;22.04;71.07;100964.91;4956488;28;103921;-65
2022/07/17 03:00:17;;;;;;;83.28;78.35;;;;;;;22.05;70.82;100972.06;4955353;28;102174;-65
2022/07/17 03:02:45;;;;;;;70.57;66.38;;;;;;;22.05;70.96;100967.34;4954788;28;102206;-64
2022/07/17 03:05:15;;;;;;;63.60;60.05;;;;;;;22.05;71.04;100972.06;4957680;28;102235;-65
2022/07/17 03:07:43;;;;;;;68.25;64.05;;;;;;;22.05;70.85;101005.31;4957132;28;104026;-65
2022/07/17 03:10:10;;;;;;;150.33;142.07;;;;;;;22.06;70.86;101015.25;4955492;28;102220;-66
2022/07/17 03:12:37;;;;;;;31.17;29.17;;;;;;;22.05;70.70;101017.22;4956519;28;102206;-65
2022/07/17 03:15:05;;;;;;;40.75;38.38;;;;;;;22.06;70.88;101040.19;4957437;28;104643;-66
2022/07/17 03:17:32;;;;;;;37.43;35.13;;;;;;;22.03;71.11;101029.78;4955720;28;104183;-66
2022/07/17 03:20:00;;;;;;;33.42;31.52;;;;;;;22.03;70.94;101040.88;4956144;28;102368;-66
2022/07/17 03:22:27;;;;;;;35.50;33.53;;;;;;;22.02;71.13;101040.06;4955610;28;102338;-65
2022/07/17 03:24:54;;;;;;;36.17;34.07;;;;;;;22.01;71.09;101030.13;4951341;28;102278;-66
2022/07/17 03:27:21;;;;;;;33.53;31.55;;;;;;;22.02;70.92;101044.81;4955682;28;103901;-65
2022/07/17 03:29:47;;;;;;;37.20;34.85;;;;;;;22.01;70.99;101044.00;4955657;28;102166;-65
2022/07/17 03:32:14;;;;;;;36.38;34.22;;;;;;;22.01;71.16;101043.19;4956694;28;102877;-65
2022/07/17 03:34:40;;;;;;;35.60;33.55;;;;;;;22.01;70.81;101054.28;4957664;28;103042;-66
2022/07/17 03:37:07;;;;;;;38.28;35.92;;;;;;;22.00;70.82;101055.44;4954450;28;104064;-66
2022/07/17 03:39:35;;;;;;;36.05;33.90;;;;;;;22.00;70.94;101052.66;4955131;28;102033;-65
2022/07/17 03:42:01;;;;;;;37.73;35.47;;;;;;;21.99;70.89;101035.19;4945399;28;102353;-66
2022/07/17 03:44:28;;;;;;;43.63;41.03;;;;;;;21.99;70.88;101031.63;4951363;28;102284;-65
2022/07/17 03:46:55;;;;;;;40.53;37.97;;;;;;;21.98;70.73;101035.56;4953660;28;103561;-65
2022/07/17 03:49:21;;;;;;;39.78;37.53;;;;;;;21.98;70.79;101021.69;4954725;28;102300;-65
2022/07/17 03:51:48;;;;;;;44.40;41.85;;;;;;;21.97;70.76;101026.44;4948032;28;102030;-65
2022/07/17 03:54:15;;;;;;;42.22;39.67;;;;;;;21.97;70.77;101018.13;4947787;28;102239;-65
2022/07/17 03:56:43;;;;;;;38.40;36.15;;;;;;;21.97;70.69;101020.91;4952350;28;103940;-65
2022/07/17 03:59:09;;;;;;;37.93;35.63;;;;;;;21.97;70.82;101022.84;4945530;28;102083;-66
2022/07/17 04:01:36;;;;;;;40.25;37.80;;;;;;;21.99;70.67;101023.31;4955696;28;102490;-65
2022/07/17 04:04:03;;;;;;;47.35;44.65;;;;;;;21.99;70.71;101037.16;4950869;28;102701;-64
2022/07/17 04:06:29;;;;;;;44.47;41.92;;;;;;;22.00;70.77;101036.03;4955018;28;104000;-65
2022/07/17 04:08:58;;;;;;;;;;;;;;;21.99;70.81;101035.19;4956417;28;102665;-65
2022/07/17 04:11:24;;;;;;;55.90;52.72;;;;;;;21.99;70.68;101040.75;4953769;28;102075;-65
2022/07/17 04:13:52;;;;;;;38.90;36.55;;;;;;;22.00;70.71;101041.59;4957622;28;102657;-64
2022/07/17 04:16:19;;;;;;;40.90;38.15;;;;;;;22.00;70.61;101044.34;4954772;28;103929;-65
2022/07/17 04:18:45;;;;;;;46.05;43.47;;;;;;;22.00;70.67;101047.13;4953168;28;102931;-65
2022/07/17 04:21:13;;;;;;;40.85;38.38;;;;;;;21.99;70.86;101042.72;4956042;28;102318;-65
2022/07/17 04:23:39;;;;;;;44.03;41.45;;;;;;;21.98;70.85;101041.91;4944562;28;102221;-65
2022/07/17 04:26:06;;;;;;;34.30;32.17;;;;;;;22.00;70.82;101049.91;4953004;28;103904;-65
2022/07/17 04:28:33;;;;;;;40.72;38.20;;;;;;;21.99;70.67;101043.53;4945551;28;102271;-64
2022/07/17 04:31:01;;;;;;;38.17;35.83;;;;;;;21.99;70.88;101040.75;4950095;28;102163;-64
2022/07/17 04:33:28;;;;;;;37.28;35.03;;;;;;;21.99;70.84;101051.03;4953504;28;102218;-64
2022/07/17 04:35:54;;;;;;;42.50;40.00;;;;;;;21.99;70.82;101046.28;4954724;28;103925;-65
2022/07/17 04:38:21;;;;;;;43.10;40.45;;;;;;;21.99;70.56;101051.03;4956009;28;102540;-65
2022/07/17 04:40:48;;;;;;;40.88;38.10;;;;;;;21.99;70.84;101057.38;4954559;28;102191;-65
2022/07/17 04:43:14;;;;;;;37.97;35.75;;;;;;;22.01;70.66;101059.81;4956960;28;101980;-65
2022/07/17 04:45:41;;;;;;;40.90;38.45;;;;;;;22.01;70.63;101049.53;4953174;28;103730;-65
2022/07/17 04:48:09;;;;;;;40.10;37.65;;;;;;;22.02;70.48;101051.16;4952690;28;102067;-66
2022/07/17 04:50:36;;;;;;;37.65;35.30;;;;;;;22.02;70.46;101064.19;4954205;28;102163;-65
2022/07/17 04:53:03;;;;;;;39.00;36.65;;;;;;;22.02;70.59;101058.66;4953654;28;102465;-65
2022/07/17 04:55:29;;;;;;;37.08;34.92;;;;;;;22.03;70.52;101074.13;4952700;28;104048;-65
2022/07/17 04:57:57;;;;;;;38.58;36.30;;;;;;;22.04;70.63;101075.78;4955988;28;102499;-65
2022/07/17 05:00:23;;;;;;;36.05;33.90;;;;;;;22.04;70.68;101081.31;4953826;28;102842;-65
2022/07/17 05:02:50;;;;;;;36.40;34.33;;;;;;;22.03;70.48;101076.91;4956695;28;102274;-65
2022/07/17 05:05:18;;;;;;;36.03;33.78;;;;;;;22.03;70.77;101079.66;4954960;28;103894;-65
2022/07/17 05:07:45;;;;;;;36.72;34.63;;;;;;;22.02;70.68;101073.31;4955426;28;102212;-65
2022/07/17 05:10:11;;;;;;;36.30;34.22;;;;;;;22.03;70.60;101079.66;4953775;28;102686;-65
2022/07/17 05:12:38;;;;;;;37.67;35.33;;;;;;;22.03;70.54;101074.97;4959103;28;102705;-64
2022/07/17 05:15:06;;;;;;;41.13;38.67;;;;;;;22.07;69.87;101084.22;4957992;28;103923;-64
2022/07/17 05:17:34;;;;;;;41.63;39.17;;;;;;;22.08;70.38;101093.34;4958815;28;102270;-59
2022/07/17 05:20:00;;;;;;;41.92;39.67;;;;;;;22.07;70.55;101098.06;4958225;28;102317;-65
2022/07/17 05:22:28;;;;;;;35.03;32.55;;;;;;;22.05;70.65;101096.78;4959853;28;102430;-65
2022/07/17 05:24:55;;;;;;;36.73;34.63;;;;;;;22.05;70.46;101102.34;4955888;28;104327;-64
2022/07/17 05:27:21;;;;;;;35.47;33.42;;;;;;;22.04;70.70;101100.72;4959151;28;102167;-65
2022/07/17 05:29:48;;;;;;;35.15;33.00;;;;;;;22.04;70.55;101111.81;4957936;28;102403;-65
2022/07/17 05:32:15;;;;;;;36.05;34.00;;;;;;;22.02;70.70;101114.09;4942246;28;102269;-64
2022/07/17 05:34:41;;;;;;;40.67;38.33;;;;;;;22.02;70.59;101123.22;4957487;28;104167;-65
2022/07/17 05:37:08;;;;;;;42.08;39.70;;;;;;;22.02;70.44;101125.19;4958548;28;102302;-65
2022/07/17 05:39:38;;;;;;;39.83;37.47;;;;;;;22.02;70.50;101119.63;4955706;28;103527;-65
2022/07/17 05:42:05;;;;;;;41.60;38.90;;;;;;;22.01;70.43;101126.34;4959392;28;104089;-65
2022/07/17 05:44:32;;;;;;;40.92;38.58;;;;;;;22.01;70.53;101131.88;4957085;28;104156;-64
2022/07/17 05:47:00;;;;;;;43.95;41.35;;;;;;;22.00;70.41;101127.50;4958212;28;102075;-65
2022/07/17 05:49:26;;;;;;;32.72;30.80;;;;;;;22.00;70.16;101124.72;4956083;28;101997;-65
2022/07/17 05:51:52;;;;;;;35.78;33.58;;;;;;;22.01;70.41;101126.34;4956892;28;102320;-65
2022/07/17 05:54:19;;;;;;;43.65;41.20;;;;;;;22.01;70.13;101127.13;4956083;28;104140;-65
2022/07/17 05:56:47;;;;;;;38.47;36.22;;;;;;;22.02;70.32;101125.97;4958833;28;102150;-65
2022/07/17 05:59:15;;;;;;;43.45;41.00;;;;;;;22.03;70.27;101122.09;4956318;28;102148;-65
2022/07/17 06:01:41;;;;;;;39.15;36.75;;;;;;;22.05;70.28;101127.28;4954877;28;102096;-65
2022/07/17 06:04:08;;;;;;;35.33;33.20;;;;;;;22.04;70.40;101132.00;4949098;28;103912;-65
2022/07/17 06:06:34;;;;;;;35.55;33.60;;;;;;;22.04;69.62;101126.47;4953197;28;102290;-64
2022/07/17 06:09:01;;;;;;;40.20;37.95;;;;;;;22.06;70.02;101124.16;4951754;28;104443;-65
2022/07/17 06:11:28;;;;;;;36.72;34.47;;;;;;;22.12;69.56;101133.09;4955684;28;102348;-65
2022/07/17 06:13:56;;;;;;;36.88;34.80;;;;;;;22.12;70.19;101124.75;4951554;28;103955;-65
2022/07/17 06:16:22;;;;;;;41.33;38.77;;;;;;;22.13;69.71;101118.06;4958547;28;102519;-65
2022/07/17 06:18:49;;;;;;;39.60;37.35;;;;;;;22.18;69.96;101119.84;4958263;28;102232;-65
2022/07/17 06:21:15;;;;;;;38.50;36.35;;;;;;;22.21;68.91;101113.63;4950886;28;102695;-65
2022/07/17 06:23:42;;;;;;;42.55;40.10;;;;;;;22.23;69.56;101123.22;4941686;28;103955;-65
2022/07/17 06:26:08;;;;;;;45.53;42.85;;;;;;;22.26;68.19;101122.53;4953462;28;102180;-65
2022/07/17 06:28:35;;;;;;;47.60;44.95;;;;;;;22.28;68.71;101123.00;4952322;28;102647;-65
2022/07/17 06:31:03;;;;;;;43.53;41.08;;;;;;;22.27;68.95;101118.63;4952196;28;102530;-64
2022/07/17 06:33:29;;;;;;;47.70;44.87;;;;;;;22.31;69.08;101130.63;4943443;28;104113;-64
2022/07/17 06:35:57;;;;;;;48.95;46.25;;;;;;;22.31;68.86;101132.59;4950880;28;102449;-66
2022/07/17 06:38:23;;;;;;;45.15;42.42;;;;;;;22.31;69.56;101135.38;4959397;28;102495;-66
2022/07/17 06:40:50;;;;;;;43.90;41.15;;;;;;;22.31;69.58;101140.94;4952265;28;102178;-65
2022/07/17 06:43:17;;;;;;;49.10;46.25;;;;;;;22.31;69.64;101141.72;4951372;28;103884;-66
2022/07/17 06:45:44;;;;;;;52.53;49.55;;;;;;;22.32;69.63;101145.31;4959892;28;102329;-65
2022/07/17 06:48:13;;;;;;;50.75;47.97;;;;;;;22.33;69.70;101146.16;4958582;28;102123;-65
2022/07/17 06:50:41;;;;;;;48.85;46.00;;;;;;;22.34;68.55;101143.03;4950366;28;102096;-65
2022/07/17 06:53:08;;;;;;;48.45;45.80;;;;;;;22.35;69.35;101149.38;4940218;28;103545;-66
2022/07/17 06:55:34;;;;;;;54.80;51.60;;;;;;;22.36;69.19;101145.44;4959486;28;101904;-66
2022/07/17 06:58:01;;;;;;;61.50;57.88;;;;;;;22.37;69.13;101144.31;4958872;28;102257;-65
2022/07/17 07:00:28;;;;;;;45.15;42.53;;;;;;;22.36;68.84;101145.44;4957776;28;102456;-64
2022/07/17 07:02:55;;;;;;;61.33;57.88;;;;;;;22.38;69.37;101152.28;4949581;28;104076;-66
2022/07/17 07:05:23;;;;;;;54.67;51.60;;;;;;;22.37;69.42;101155.41;4958258;28;101926;-65
2022/07/17 07:07:49;;;;;;;55.23;52.10;;;;;;;22.37;69.91;101149.84;4958937;28;102134;-66
2022/07/17 07:10:16;;;;;;;54.88;51.85;;;;;;;22.39;69.70;101153.09;4957216;28;102257;-66
2022/07/17 07:12:47;;;;;;;55.63;52.50;;;;;;;22.39;69.66;101156.66;4939182;28;104101;-66
2022/07/17 07:15:15;;;;;;;50.10;47.33;;;;;;;22.40;69.46;101161.06;4954093;28;101965;-65
2022/07/17 07:17:42;;;;;;;50.47;47.65;;;;;;;22.41;69.57;101170.19;4958796;28;102193;-66
2022/07/17 07:20:10;;;;;;;45.67;43.17;;;;;;;22.42;69.68;101174.59;4952980;28;102121;-65
2022/07/17 07:22:38;;;;;;;;;;;;;;;22.42;69.51;101180.94;4949991;28;103866;-66
2022/07/17 07:25:05;;;;;;;67.97;64.25;;;;;;;22.43;69.58;101187.28;4954159;28;102228;-64
2022/07/17 07:27:32;;;;;;;51.80;48.97;;;;;;;22.44;69.52;101194.50;4956721;28;102063;-66
2022/07/17 07:29:58;;;;;;;69.43;65.60;;;;;;;22.45;69.62;101190.56;4959003;28;102133;-65
2022/07/17 07:32:25;;;;;;;57.55;54.38;;;;;;;22.45;69.44;101193.31;4958158;28;103737;-66
2022/07/17 07:34:54;;;;;;;62.85;59.40;;;;;;;22.45;69.43;101180.25;4941117;28;102501;-65
2022/07/17 07:37:21;;;;;;;48.70;45.70;;;;;;;22.46;69.62;101179.09;4955572;28;102073;-66
2022/07/17 07:39:49;;;;;;;56.70;53.67;;;;;;;22.46;69.28;101183.84;4946925;28;102205;-66
2022/07/17 07:42:15;;;;;;;58.57;55.30;;;;;;;22.46;69.29;101175.53;4938718;28;103932;-66
2022/07/17 07:44:42;;;;;;;49.15;46.42;;;;;;;22.47;69.68;101179.94;4941674;28;101995;-66
2022/07/17 07:47:08;;;;;;;45.65;43.10;;;;;;;22.45;69.31;101185.00;4949619;28;102118;-66
2022/07/17 07:49:35;;;;;;;57.88;54.70;;;;;;;22.46;69.67;101181.06;4959169;28;102292;-65
2022/07/17 07:52:01;;;;;;;57.95;54.75;;;;;;;22.45;69.85;101185.00;4953387;28;103967;-66
2022/07/17 07:54:29;;;;;;;50.50;47.75;;;;;;;22.46;69.59;101165.25;4957460;28;101977;-65
2022/07/17 07:56:56;;;;;;;56.47;53.28;;;;;;;22.50;69.16;101173.69;4957495;28;102160;-65
2022/07/17 07:59:23;;;;;;;64.37;60.73;;;;;;;22.50;69.63;101173.69;4953776;28;102326;-64
2022/07/17 08:01:49;;;;;;;54.85;51.80;;;;;;;22.49;69.26;101166.53;4954790;28;104013;-65
2022/07/17 08:04:16;;;;;;;52.08;49.28;;;;;;;22.50;69.13;101171.75;4947781;28;102182;-66
2022/07/17 08:06:44;;;;;;;67.00;63.25;;;;;;;22.51;69.29;101173.38;4949513;28;102051;-63
2022/07/17 08:09:11;;;;;;;61.95;58.65;;;;;;;22.51;69.20;101172.56;4950216;28;102176;-65
2022/07/17 08:11:37;;;;;;;57.05;53.88;;;;;;;22.52;69.05;101171.41;4951221;28;103878;-66
2022/07/17 08:14:05;;;;;;;55.35;52.33;;;;;;;22.51;69.04;101178.91;4957396;28;102658;-63
2022/07/17 08:16:32;;;;;;;64.03;60.60;;;;;;;22.50;69.31;101171.75;4955897;28;102411;-65
2022/07/17 08:18:58;;;;;;;55.35;52.08;;;;;;;22.50;69.04;101177.31;4957273;28;102353;-64
2022/07/17 08:21:25;;;;;;;63.42;60.08;;;;;;;22.50;69.07;101174.53;4954926;28;103880;-66
2022/07/17 08:23:52;;;;;;;60.20;56.90;;;;;;;22.51;68.98;101172.56;4957504;28;102166;-65
2022/07/17 08:26:19;;;;;;;41.38;39.00;;;;;;;22.50;69.20;101170.91;4947005;28;102132;-66
2022/07/17 08:28:46;;;;;;;47.42;44.85;;;;;;;22.50;69.08;101177.31;4958458;28;102328;-65
2022/07/17 08:31:13;;;;;;;49.10;46.45;;;;;;;22.48;69.21;101174.03;4953997;28;103877;-64
2022/07/17 08:33:40;;;;;;;64.77;61.23;;;;;;;22.49;69.07;101169.31;4955768;28;102057;-65
2022/07/17 08:36:07;;;;;;;53.47;50.63;;;;;;;22.49;68.99;101177.63;4957902;28;101781;-65
2022/07/17 08:38:35;;;;;;;51.88;48.95;;;;;;;22.49;69.06;101181.19;4958922;28;102395;-66
2022/07/17 08:41:04;;;;;;;49.83;47.05;;;;;;;22.50;69.04;101176.47;4953615;28;103897;-65
2022/07/17 08:43:31;;;;;;;55.00;51.92;;;;;;;22.50;68.80;101187.56;4956736;28;102189;-65
2022/07/17 08:45:59;;;;;;;33.50;31.55;;;;;;;22.50;68.75;101180.06;4960250;28;101852;-65
2022/07/17 08:48:28;;;;;;;3.08;2.88;;;;;;;22.49;69.05;101194.25;4951410;28;102168;-66
2022/07/17 08:50:58;;;;;;;3.13;2.88;;;;;;;22.46;68.97;101187.44;4960449;28;103965;-64
2022/07/17 08:53:25;;;;;;;3.50;3.20;;;;;;;22.47;68.53;101194.63;4959946;28;102722;-66
2022/07/17 08:55:52;;;;;;;3.17;2.88;;;;;;;22.47;68.62;101191.03;4960720;28;101863;-69
2022/07/17 08:58:18;;;;;;;3.38;3.08;;;;;;;22.48;68.45;101182.38;4961362;28;102180;-66
2022/07/17 09:00:45;;;;;;;3.30;3.00;;;;;;;22.51;68.24;101186.44;4960052;28;104012;-66
2022/07/17 09:03:14;;;;;;;3.40;3.08;;;;;;;22.51;68.00;101189.19;4961131;28;102201;-65
2022/07/17 09:05:42;;;;;;;6.80;3.22;;;;;;;22.51;67.86;101178.91;4952570;28;102167;-68
2022/07/17 09:08:15;;;;;;;2.93;2.73;;;;;;;22.52;68.54;101185.25;4955468;28;102246;-65
2022/07/17 09:11:07;;;;;;;3.17;2.88;;;;;;;22.50;68.66;101187.56;4953265;28;104828;-64
2022/07/17 09:13:34;;;;;;;3.38;3.10;;;;;;;22.49;68.38;101189.53;4955987;28;102169;-65
2022/07/17 09:16:07;;;;;;;3.40;3.10;;;;;;;22.48;68.35;101185.13;4958310;28;102285;-66
2022/07/17 09:18:44;;;;;;;3.40;3.10;;;;;;;22.49;68.53;101181.19;4959965;28;102526;-65
2022/07/17 09:21:18;;;;;;;3.30;3.00;;;;;;;22.50;68.60;101195.88;4941251;28;103871;-65
2022/07/17 09:23:45;;;;;;;2.90;2.67;;;;;;;22.49;68.47;101185.94;4954440;28;102226;-65
2022/07/17 09:26:12;;;;;;;2.65;2.45;;;;;;;22.48;68.28;101201.78;4946035;28;102091;-64
2022/07/17 09:28:45;;;;;;;2.83;2.63;;;;;;;22.49;68.17;101202.59;4958839;28;102253;-64
2022/07/17 09:31:12;;;;;;;3.08;2.88;;;;;;;22.49;68.55;101202.59;4958736;28;103880;-65
2022/07/17 09:33:38;;;;;;;2.88;2.67;;;;;;;22.46;67.96;101203.25;4960425;28;102009;-65
2022/07/17 09:36:08;;;;;;;3.15;2.95;;;;;;;22.47;68.04;101216.00;4959822;28;102006;-65
2022/07/17 09:38:38;;;;;;;3.10;2.80;;;;;;;22.46;68.44;101215.16;4961511;28;102227;-65
2022/07/17 09:41:15;;;;;;;3.15;2.83;;;;;;;22.46;68.15;101211.59;4948678;28;103963;-66
2022/07/17 09:43:46;;;;;;;2.80;2.60;;;;;;;22.45;68.31;101212.75;4958911;28;102631;-65
2022/07/17 09:46:14;;;;;;;3.03;2.83;;;;;;;22.45;68.17;101223.84;4952047;28;102181;-65
2022/07/17 09:48:47;;;;;;;3.10;2.80;;;;;;;22.44;67.84;101223.03;4948560;28;102336;-64
2022/07/17 09:51:16;;;;;;;3.22;2.92;;;;;;;22.45;67.42;101215.50;4948029;28;104122;-65
2022/07/17 09:53:48;;;;;;;2.88;2.67;;;;;;;22.45;67.17;101221.06;4948726;28;102372;-65
2022/07/17 09:56:17;;;;;;;2.83;2.63;;;;;;;22.44;67.78;101238.84;4947078;28;101966;-66
2022/07/17 09:58:46;;;;;;;2.92;2.72;;;;;;;22.43;68.08;101223.34;4959873;28;102583;-65
2022/07/17 10:01:14;;;;;;;2.90;2.70;;;;;;;22.42;68.05;101230.06;4942743;28;103970;-64
2022/07/17 10:03:41;;;;;;;4.28;3.00;;;;;;;22.43;67.74;101226.13;4956283;28;102521;-66
2022/07/17 10:06:09;;;;;;;3.38;2.80;;;;;;;22.44;67.87;101233.31;4953411;28;102220;-65
2022/07/17 10:08:37;;;;;;;3.38;2.53;;;;;;;22.43;67.72;101232.50;4961253;28;102209;-66
2022/07/17 10:11:05;;;;;;;2.70;2.50;;;;;;;22.43;67.95;101226.13;4951771;28;103965;-65
2022/07/17 10:13:32;;;;;;;2.95;2.75;;;;;;;22.43;67.49;101235.28;4940579;28;102693;-65
2022/07/17 10:15:59;;;;;;;2.83;2.63;;;;;;;22.40;67.71;101232.38;4946229;28;102403;-65
2022/07/17 10:18:36;;;;;;;2.70;2.50;;;;;;;22.40;67.72;101221.28;4959333;28;102222;-65
2022/07/17 10:21:21;;;;;;;2.47;2.28;;;;;;;22.41;67.87;101232.03;4953866;28;103972;-66
2022/07/17 10:24:06;;;;;;;3.00;2.75;;;;;;;22.41;67.54;101228.44;4959345;28;102020;-66
2022/07/17 10:26:39;;;;;;;2.80;2.60;;;;;;;22.38;67.51;101227.16;4942053;28;102393;-65
2022/07/17 10:29:08;;;;;;;2.88;2.67;;;;;;;22.41;67.35;101228.44;4945751;28;101974;-65
2022/07/17 10:31:35;;;;;;;3.35;3.05;;;;;;;22.40;67.68;101221.28;4939574;28;103633;-64
2022/07/17 10:34:06;;;;;;;3.00;2.67;;;;;;;22.41;67.22;101220.13;4939857;28;102223;-66
2022/07/17 10:36:35;;;;;;;3.00;2.80;;;;;;;22.41;66.47;101222.91;4944062;28;102054;-65
2022/07/17 10:39:11;;;;;;;2.88;2.67;;;;;;;22.42;65.42;101225.31;4960425;28;102259;-65
2022/07/17 10:41:40;;;;;;;2.95;2.75;;;;;;;22.43;66.98;101226.13;4959107;28;104004;-66
2022/07/17 10:44:06;;;;;;;3.38;2.78;;;;;;;22.41;67.10;101214.56;4959715;28;102033;-64
2022/07/17 10:46:33;;;;;;;2.80;2.55;;;;;;;22.43;65.71;101215.03;4958188;28;102169;-65
2022/07/17 10:49:03;;;;;;;2.90;2.60;;;;;;;22.43;67.07;101221.41;4942725;28;102131;-66
2022/07/17 10:51:30;;;;;;;2.63;2.42;;;;;;;22.41;67.31;101209.03;4941400;28;104107;-64
2022/07/17 10:53:58;;;;;;;3.90;2.67;;;;;;;22.39;66.71;101208.53;4943294;28;102024;-65
2022/07/17 10:56:26;;;;;;;2.58;2.40;;;;;;;22.42;65.50;101207.88;4952792;28;102435;-65
2022/07/17 10:59:01;;;;;;;2.60;2.40;;;;;;;22.41;67.40;101217.34;4942868;28;102335;-66
2022/07/17 11:01:29;;;;;;;2.83;2.63;;;;;;;22.39;66.78;101203.81;4951026;28;104258;-65
2022/07/17 11:03:57;;;;;;;3.10;2.80;;;;;;;22.42;66.44;101213.41;4959179;28;101946;-65